sensor_id;sensor_type;location;lat;lon;timestamp;pressure;altitude;pressure_sealevel;temperature;humidity
72116;BME280;59991;52.140;5.428;2023-02-26T00:00:39;101957.00;;;0.73;76.27
72116;BME280;59991;52.140;5.428;2023-02-26T00:01:15;101953.00;;;0.71;75.68
72116;BME280;59991;52.140;5.428;2023-02-26T00:01:56;101956.19;;;0.73;75.64
72116;BME280;59991;52.140;5.428;2023-02-26T00:02:33;101958.09;;;0.72;75.95
72116;BME280;59991;52.140;5.428;2023-02-26T00:03:07;101957.81;;;0.74;75.86
72116;BME280;59991;52.140;5.428;2023-02-26T00:03:41;101959.97;;;0.72;75.58
72116;BME280;59991;52.140;5.428;2023-02-26T00:04:18;101960.75;;;0.72;75.55
72116;BME280;59991;52.140;5.428;2023-02-26T00:04:55;101967.19;;;0.76;75.63
72116;BME280;59991;52.140;5.428;2023-02-26T00:05:30;101966.38;;;0.76;75.75
72116;BME280;59991;52.140;5.428;2023-02-26T00:06:07;101965.06;;;0.73;75.76
72116;BME280;59991;52.140;5.428;2023-02-26T00:06:41;101968.81;;;0.72;75.46
72116;BME280;59991;52.140;5.428;2023-02-26T00:07:29;101963.22;;;0.68;75.66
72116;BME280;59991;52.140;5.428;2023-02-26T00:08:07;101967.22;;;0.71;75.85
72116;BME280;59991;52.140;5.428;2023-02-26T00:08:40;101965.91;;;0.68;75.57
72116;BME280;59991;52.140;5.428;2023-02-26T00:09:23;101976.34;;;0.70;75.37
72116;BME280;59991;52.140;5.428;2023-02-26T00:10:01;101961.59;;;0.67;75.21
72116;BME280;59991;52.140;5.428;2023-02-26T00:10:39;101958.94;;;0.67;75.41
72116;BME280;59991;52.140;5.428;2023-02-26T00:11:17;101971.78;;;0.71;75.42
72116;BME280;59991;52.140;5.428;2023-02-26T00:11:51;101970.19;;;0.69;75.36
72116;BME280;59991;52.140;5.428;2023-02-26T00:12:27;101961.59;;;0.67;75.57
72116;BME280;59991;52.140;5.428;2023-02-26T00:13:09;101965.38;;;0.66;75.10
72116;BME280;59991;52.140;5.428;2023-02-26T00:13:44;101976.66;;;0.63;75.07
72116;BME280;59991;52.140;5.428;2023-02-26T00:14:26;101969.94;;;0.66;75.47
72116;BME280;59991;52.140;5.428;2023-02-26T00:15:05;101970.22;;;0.64;75.76
72116;BME280;59991;52.140;5.428;2023-02-26T00:15:41;101974.28;;;0.62;75.39
72116;BME280;59991;52.140;5.428;2023-02-26T00:16:32;101978.78;;;0.66;75.97
72116;BME280;59991;52.140;5.428;2023-02-26T00:18:06;101987.13;;;0.65;75.65
72116;BME280;59991;52.140;5.428;2023-02-26T00:18:40;101981.00;;;0.59;75.82
72116;BME280;59991;52.140;5.428;2023-02-26T00:19:13;101979.13;;;0.60;75.27
72116;BME280;59991;52.140;5.428;2023-02-26T00:19:50;101979.38;;;0.58;75.36
72116;BME280;59991;52.140;5.428;2023-02-26T00:20:27;101983.69;;;0.59;75.60
72116;BME280;59991;52.140;5.428;2023-02-26T00:21:00;101994.13;;;0.61;75.54
72116;BME280;59991;52.140;5.428;2023-02-26T00:21:43;101996.81;;;0.61;75.70
72116;BME280;59991;52.140;5.428;2023-02-26T00:22:20;101987.75;;;0.57;75.41
72116;BME280;59991;52.140;5.428;2023-02-26T00:22:58;101992.53;;;0.60;75.46
72116;BME280;59991;52.140;5.428;2023-02-26T00:23:34;101996.28;;;0.59;75.82
72116;BME280;59991;52.140;5.428;2023-02-26T00:24:14;101990.72;;;0.55;75.68
72116;BME280;59991;52.140;5.428;2023-02-26T00:24:49;101991.78;;;0.54;75.23
72116;BME280;59991;52.140;5.428;2023-02-26T00:25:23;102003.28;;;0.60;75.59
72116;BME280;59991;52.140;5.428;2023-02-26T00:25:57;101995.50;;;0.58;75.49
72116;BME280;59991;52.140;5.428;2023-02-26T00:26:35;102002.47;;;0.59;75.69
72116;BME280;59991;52.140;5.428;2023-02-26T00:27:12;101996.09;;;0.55;75.46
72116;BME280;59991;52.140;5.428;2023-02-26T00:27:49;102007.34;;;0.57;75.57
72116;BME280;59991;52.140;5.428;2023-02-26T00:28:25;102003.84;;;0.57;75.45
72116;BME280;59991;52.140;5.428;2023-02-26T00:28:59;102006.22;;;0.58;75.61
72116;BME280;59991;52.140;5.428;2023-02-26T00:29:36;102000.88;;;0.58;75.19
72116;BME280;59991;52.140;5.428;2023-02-26T00:30:11;102011.31;;;0.60;75.04
72116;BME280;59991;52.140;5.428;2023-02-26T00:30:50;102006.03;;;0.55;74.76
72116;BME280;59991;52.140;5.428;2023-02-26T00:31:26;102011.31;;;0.60;74.92
72116;BME280;59991;52.140;5.428;2023-02-26T00:32:01;102013.19;;;0.59;75.10
72116;BME280;59991;52.140;5.428;2023-02-26T00:32:35;102013.19;;;0.59;74.98
72116;BME280;59991;52.140;5.428;2023-02-26T00:33:12;102009.44;;;0.60;75.31
72116;BME280;59991;52.140;5.428;2023-02-26T00:33:44;102020.97;;;0.61;74.65
72116;BME280;59991;52.140;5.428;2023-02-26T00:34:18;102017.22;;;0.62;74.63
72116;BME280;59991;52.140;5.428;2023-02-26T00:34:56;102010.53;;;0.59;75.16
72116;BME280;59991;52.140;5.428;2023-02-26T00:35:30;102019.34;;;0.65;74.69
72116;BME280;59991;52.140;5.428;2023-02-26T00:37:26;102016.13;;;0.63;74.47
72116;BME280;59991;52.140;5.428;2023-02-26T00:38:15;102017.97;;;0.67;74.79
72116;BME280;59991;52.140;5.428;2023-02-26T00:39:17;102031.66;;;0.71;74.82
72116;BME280;59991;52.140;5.428;2023-02-26T00:40:54;102030.59;;;0.67;75.01
72116;BME280;59991;52.140;5.428;2023-02-26T00:41:31;102028.19;;;0.65;74.73
72116;BME280;59991;52.140;5.428;2023-02-26T00:42:05;102035.69;;;0.68;74.57
72116;BME280;59991;52.140;5.428;2023-02-26T00:42:43;102022.81;;;0.65;74.75
72116;BME280;59991;52.140;5.428;2023-02-26T00:43:19;102027.63;;;0.68;74.23
72116;BME280;59991;52.140;5.428;2023-02-26T00:43:55;102031.41;;;0.67;74.45
72116;BME280;59991;52.140;5.428;2023-02-26T00:44:31;102027.63;;;0.68;74.24
72116;BME280;59991;52.140;5.428;2023-02-26T00:45:08;102022.25;;;0.68;74.32
72116;BME280;59991;52.140;5.428;2023-02-26T00:45:57;102040.75;;;0.75;74.32
72116;BME280;59991;52.140;5.428;2023-02-26T00:46:43;102027.09;;;0.72;74.29
72116;BME280;59991;52.140;5.428;2023-02-26T00:48:25;102041.25;;;0.77;74.19
72116;BME280;59991;52.140;5.428;2023-02-26T00:50:31;102035.66;;;0.74;74.49
72116;BME280;59991;52.140;5.428;2023-02-26T00:51:20;102039.41;;;0.73;74.17
72116;BME280;59991;52.140;5.428;2023-02-26T00:52:01;102032.44;;;0.72;74.41
72116;BME280;59991;52.140;5.428;2023-02-26T00:52:46;102029.47;;;0.73;74.40
72116;BME280;59991;52.140;5.428;2023-02-26T00:53:30;102034.59;;;0.69;74.46
72116;BME280;59991;52.140;5.428;2023-02-26T00:54:28;102045.31;;;0.75;74.13
72116;BME280;59991;52.140;5.428;2023-02-26T00:55:09;102031.94;;;0.69;74.31
72116;BME280;59991;52.140;5.428;2023-02-26T00:55:49;102039.47;;;0.67;74.43
72116;BME280;59991;52.140;5.428;2023-02-26T00:56:24;102031.41;;;0.67;74.13
72116;BME280;59991;52.140;5.428;2023-02-26T00:57:04;102034.59;;;0.69;74.16
72116;BME280;59991;52.140;5.428;2023-02-26T00:57:40;102037.81;;;0.72;74.04
72116;BME280;59991;52.140;5.428;2023-02-26T00:58:11;102029.00;;;0.66;74.23
72116;BME280;59991;52.140;5.428;2023-02-26T00:58:48;102041.59;;;0.71;74.17
72116;BME280;59991;52.140;5.428;2023-02-26T00:59:21;102039.41;;;0.73;74.28
72116;BME280;59991;52.140;5.428;2023-02-26T01:00:04;102035.97;;;0.67;74.42
72116;BME280;59991;52.140;5.428;2023-02-26T01:00:41;102035.97;;;0.67;74.53
72116;BME280;59991;52.140;5.428;2023-02-26T01:01:20;102038.38;;;0.68;74.33
72116;BME280;59991;52.140;5.428;2023-02-26T01:01:55;102040.25;;;0.68;74.62
72116;BME280;59991;52.140;5.428;2023-02-26T01:02:29;102034.66;;;0.64;74.67
72116;BME280;59991;52.140;5.428;2023-02-26T01:03:03;102049.13;;;0.68;74.42
72116;BME280;59991;52.140;5.428;2023-02-26T01:03:41;102042.41;;;0.66;74.52
72116;BME280;59991;52.140;5.428;2023-02-26T01:04:16;102033.59;;;0.60;74.80
72116;BME280;59991;52.140;5.428;2023-02-26T01:04:53;102034.91;;;0.63;75.09
72116;BME280;59991;52.140;5.428;2023-02-26T01:05:31;102035.19;;;0.61;74.63
72116;BME280;59991;52.140;5.428;2023-02-26T01:06:19;102030.38;;;0.58;74.57
72116;BME280;59991;52.140;5.428;2023-02-26T01:07:03;102032.00;;;0.59;74.47
72116;BME280;59991;52.140;5.428;2023-02-26T01:07:43;102029.59;;;0.58;74.77
72116;BME280;59991;52.140;5.428;2023-02-26T01:09:23;102035.19;;;0.61;74.41
72116;BME280;59991;52.140;5.428;2023-02-26T01:09:36;102042.16;;;0.62;74.69
72116;BME280;59991;52.140;5.428;2023-02-26T01:10:12;102037.34;;;0.59;74.62
72116;BME280;59991;52.140;5.428;2023-02-26T01:10:47;102027.50;;;0.55;74.57
72116;BME280;59991;52.140;5.428;2023-02-26T01:11:25;102039.25;;;0.59;74.90
72116;BME280;59991;52.140;5.428;2023-02-26T01:12:06;102033.13;;;0.53;74.65
72116;BME280;59991;52.140;5.428;2023-02-26T01:12:46;102040.38;;;0.53;74.99
72116;BME280;59991;52.140;5.428;2023-02-26T01:13:23;102032.06;;;0.54;75.10
72116;BME280;59991;52.140;5.428;2023-02-26T01:14:07;102031.53;;;0.52;75.13
72116;BME280;59991;52.140;5.428;2023-02-26T01:14:47;102051.59;;;0.60;74.53
72116;BME280;59991;52.140;5.428;2023-02-26T01:15:31;102043.59;;;0.55;75.02
72116;BME280;59991;52.140;5.428;2023-02-26T01:16:14;102048.69;;;0.56;75.04
72116;BME280;59991;52.140;5.428;2023-02-26T01:17:18;102058.84;;;0.59;75.03
72116;BME280;59991;52.140;5.428;2023-02-26T01:18:07;102045.69;;;0.58;75.03
72116;BME280;59991;52.140;5.428;2023-02-26T01:19:02;102043.31;;;0.56;74.79
72116;BME280;59991;52.140;5.428;2023-02-26T01:19:59;102055.06;;;0.60;75.00
72116;BME280;59991;52.140;5.428;2023-02-26T01:20:43;102042.22;;;0.57;74.66
72116;BME280;59991;52.140;5.428;2023-02-26T01:21:28;102047.06;;;0.55;74.59
72116;BME280;59991;52.140;5.428;2023-02-26T01:22:22;102044.13;;;0.57;75.15
72116;BME280;59991;52.140;5.428;2023-02-26T01:23:08;102047.34;;;0.54;75.23
72116;BME280;59991;52.140;5.428;2023-02-26T01:23:49;102044.41;;;0.50;74.95
72116;BME280;59991;52.140;5.428;2023-02-26T01:24:32;102050.03;;;0.54;74.73
72116;BME280;59991;52.140;5.428;2023-02-26T01:25:14;102054.06;;;0.51;75.04
72116;BME280;59991;52.140;5.428;2023-02-26T01:25:59;102062.38;;;0.55;75.21
72116;BME280;59991;52.140;5.428;2023-02-26T01:26:38;102055.72;;;0.47;75.00
72116;BME280;59991;52.140;5.428;2023-02-26T01:27:15;102048.47;;;0.48;74.86
72116;BME280;59991;52.140;5.428;2023-02-26T01:27:47;102053.03;;;0.47;74.95
72116;BME280;59991;52.140;5.428;2023-02-26T01:28:19;102060.53;;;0.50;74.95
72116;BME280;59991;52.140;5.428;2023-02-26T01:29:05;102055.19;;;0.45;75.15
72116;BME280;59991;52.140;5.428;2023-02-26T01:29:43;102059.47;;;0.46;75.06
72116;BME280;59991;52.140;5.428;2023-02-26T01:30:23;102065.38;;;0.48;75.15
72116;BME280;59991;52.140;5.428;2023-02-26T01:31:04;102053.59;;;0.44;75.41
72116;BME280;59991;52.140;5.428;2023-02-26T01:31:49;102066.97;;;0.49;75.35
72116;BME280;59991;52.140;5.428;2023-02-26T01:32:50;102067.53;;;0.46;74.71
72116;BME280;59991;52.140;5.428;2023-02-26T01:33:38;102056.53;;;0.43;74.63
72116;BME280;59991;52.140;5.428;2023-02-26T01:34:22;102069.66;;;0.49;74.96
72116;BME280;59991;52.140;5.428;2023-02-26T01:35:53;102061.38;;;0.41;74.97
72116;BME280;59991;52.140;5.428;2023-02-26T01:36:33;102061.91;;;0.43;74.97
72116;BME280;59991;52.140;5.428;2023-02-26T01:37:43;102069.69;;;0.44;74.82
72116;BME280;59991;52.140;5.428;2023-02-26T01:38:27;102065.41;;;0.43;74.84
72116;BME280;59991;52.140;5.428;2023-02-26T01:39:15;102070.22;;;0.41;74.91
72116;BME280;59991;52.140;5.428;2023-02-26T01:42:16;102070.56;;;0.34;74.83
72116;BME280;59991;52.140;5.428;2023-02-26T01:42:53;102067.09;;;0.34;74.43
72116;BME280;59991;52.140;5.428;2023-02-26T01:44:58;102072.97;;;0.36;74.82
72116;BME280;59991;52.140;5.428;2023-02-26T01:45:34;102077.81;;;0.34;74.55
72116;BME280;59991;52.140;5.428;2023-02-26T01:47:52;102076.47;;;0.31;74.46
72116;BME280;59991;52.140;5.428;2023-02-26T01:48:36;102082.94;;;0.30;74.39
72116;BME280;59991;52.140;5.428;2023-02-26T01:49:14;102077.84;;;0.29;74.53
72116;BME280;59991;52.140;5.428;2023-02-26T01:49:47;102080.00;;;0.27;74.50
72116;BME280;59991;52.140;5.428;2023-02-26T01:50:24;102069.81;;;0.24;74.54
72116;BME280;59991;52.140;5.428;2023-02-26T01:51:12;102072.50;;;0.24;74.62
72116;BME280;59991;52.140;5.428;2023-02-26T01:51:49;102082.69;;;0.27;74.83
72116;BME280;59991;52.140;5.428;2023-02-26T01:53:22;102081.34;;;0.24;74.12
72116;BME280;59991;52.140;5.428;2023-02-26T01:53:59;102069.34;;;0.17;74.38
72116;BME280;59991;52.140;5.428;2023-02-26T01:54:36;102078.97;;;0.18;74.38
72116;BME280;59991;52.140;5.428;2023-02-26T01:55:10;102070.41;;;0.16;74.18
72116;BME280;59991;52.140;5.428;2023-02-26T01:55:46;102074.69;;;0.17;74.56
72116;BME280;59991;52.140;5.428;2023-02-26T01:56:31;102079.47;;;0.20;74.18
72116;BME280;59991;52.140;5.428;2023-02-26T01:57:10;102082.69;;;0.22;73.98
72116;BME280;59991;52.140;5.428;2023-02-26T01:57:45;102077.91;;;0.19;74.21
72116;BME280;59991;52.140;5.428;2023-02-26T01:58:20;102071.75;;;0.18;73.98
72116;BME280;59991;52.140;5.428;2023-02-26T01:58:53;102076.31;;;0.18;74.28
72116;BME280;59991;52.140;5.428;2023-02-26T01:59:35;102071.50;;;0.15;74.44
72116;BME280;59991;52.140;5.428;2023-02-26T02:00:15;102085.44;;;0.17;73.99
72116;BME280;59991;52.140;5.428;2023-02-26T02:00:47;102083.53;;;0.17;74.03
72116;BME280;59991;52.140;5.428;2023-02-26T02:01:20;102080.59;;;0.19;74.37
72116;BME280;59991;52.140;5.428;2023-02-26T02:01:57;102079.81;;;0.13;74.29
72116;BME280;59991;52.140;5.428;2023-02-26T02:02:46;102081.41;;;0.14;74.12
72116;BME280;59991;52.140;5.428;2023-02-26T02:03:20;102083.28;;;0.14;74.07
72116;BME280;59991;52.140;5.428;2023-02-26T02:03:54;102076.88;;;0.10;74.51
72116;BME280;59991;52.140;5.428;2023-02-26T02:04:29;102084.91;;;0.10;74.29
72116;BME280;59991;52.140;5.428;2023-02-26T02:05:11;102087.06;;;0.13;74.36
72116;BME280;59991;52.140;5.428;2023-02-26T02:05:54;102083.84;;;0.11;74.46
72116;BME280;59991;52.140;5.428;2023-02-26T02:06:32;102095.06;;;0.18;74.25
72116;BME280;59991;52.140;5.428;2023-02-26T02:07:05;102086.25;;;0.12;74.21
72116;BME280;59991;52.140;5.428;2023-02-26T02:07:40;102084.63;;;0.11;74.22
72116;BME280;59991;52.140;5.428;2023-02-26T02:08:14;102095.09;;;0.13;73.98
72116;BME280;59991;52.140;5.428;2023-02-26T02:08:51;102089.72;;;0.13;73.98
72116;BME280;59991;52.140;5.428;2023-02-26T02:09:41;102091.63;;;0.12;74.14
72116;BME280;59991;52.140;5.428;2023-02-26T02:10:13;102088.41;;;0.10;74.02
72116;BME280;59991;52.140;5.428;2023-02-26T02:10:52;102093.22;;;0.08;74.16
72116;BME280;59991;52.140;5.428;2023-02-26T02:11:32;102099.41;;;0.09;74.03
72116;BME280;59991;52.140;5.428;2023-02-26T02:13:09;102097.25;;;0.11;74.52
72116;BME280;59991;52.140;5.428;2023-02-26T02:14:55;102097.53;;;0.04;74.33
72116;BME280;59991;52.140;5.428;2023-02-26T02:16:41;102097.81;;;0.03;74.33
72116;BME280;59991;52.140;5.428;2023-02-26T02:19:39;102099.97;;;0.00;74.14
72116;BME280;59991;52.140;5.428;2023-02-26T02:20:28;102102.16;;;-0.02;74.70
72116;BME280;59991;52.140;5.428;2023-02-26T02:21:28;102103.22;;;-0.03;74.32
72116;BME280;59991;52.140;5.428;2023-02-26T02:23:46;102099.47;;;-0.07;74.61
72116;BME280;59991;52.140;5.428;2023-02-26T02:30:37;102119.88;;;-0.11;74.46
72116;BME280;59991;52.140;5.428;2023-02-26T02:31:25;102116.38;;;-0.11;74.35
72116;BME280;59991;52.140;5.428;2023-02-26T02:32:09;102127.09;;;-0.11;74.34
72116;BME280;59991;52.140;5.428;2023-02-26T02:32:57;102122.00;;;-0.13;74.60
72116;BME280;59991;52.140;5.428;2023-02-26T02:33:52;102127.63;;;-0.09;74.74
72116;BME280;59991;52.140;5.428;2023-02-26T02:35:24;102126.84;;;-0.10;74.17
72116;BME280;59991;52.140;5.428;2023-02-26T02:36:07;102130.59;;;-0.11;74.46
72116;BME280;59991;52.140;5.428;2023-02-26T02:36:55;102132.75;;;-0.13;74.24
72116;BME280;59991;52.140;5.428;2023-02-26T02:37:40;102137.03;;;-0.12;74.41
72116;BME280;59991;52.140;5.428;2023-02-26T02:38:18;102127.38;;;-0.18;74.38
72116;BME280;59991;52.140;5.428;2023-02-26T02:39:01;102121.25;;;-0.23;74.35
72116;BME280;59991;52.140;5.428;2023-02-26T02:39:55;102125.53;;;-0.22;74.29
72116;BME280;59991;52.140;5.428;2023-02-26T02:40:32;102130.63;;;-0.21;74.23
72116;BME280;59991;52.140;5.428;2023-02-26T02:41:11;102119.13;;;-0.26;74.36
72116;BME280;59991;52.140;5.428;2023-02-26T02:41:48;102119.91;;;-0.26;73.93
72116;BME280;59991;52.140;5.428;2023-02-26T02:43:21;102136.81;;;-0.20;74.37
72116;BME280;59991;52.140;5.428;2023-02-26T02:44:06;102136.00;;;-0.21;73.90
72116;BME280;59991;52.140;5.428;2023-02-26T02:44:47;102129.28;;;-0.23;73.98
72116;BME280;59991;52.140;5.428;2023-02-26T02:45:41;102131.97;;;-0.23;74.09
72116;BME280;59991;52.140;5.428;2023-02-26T02:46:25;102139.22;;;-0.24;74.12
72116;BME280;59991;52.140;5.428;2023-02-26T02:47:07;102130.09;;;-0.28;73.96
72116;BME280;59991;52.140;5.428;2023-02-26T02:47:43;102134.41;;;-0.32;73.90
72116;BME280;59991;52.140;5.428;2023-02-26T02:49:12;102135.19;;;-0.26;73.91
72116;BME280;59991;52.140;5.428;2023-02-26T02:50:44;102134.66;;;-0.33;74.15
72116;BME280;59991;52.140;5.428;2023-02-26T02:51:03;102135.47;;;-0.28;74.15
72116;BME280;59991;52.140;5.428;2023-02-26T02:51:46;102134.13;;;-0.36;74.44
72116;BME280;59991;52.140;5.428;2023-02-26T02:52:40;102140.56;;;-0.31;74.37
72116;BME280;59991;52.140;5.428;2023-02-26T02:54:19;102138.97;;;-0.32;74.70
72116;BME280;59991;52.140;5.428;2023-02-26T02:55:06;102137.63;;;-0.35;74.35
72116;BME280;59991;52.140;5.428;2023-02-26T02:55:49;102138.97;;;-0.38;74.17
72116;BME280;59991;52.140;5.428;2023-02-26T02:56:32;102136.81;;;-0.36;73.92
72116;BME280;59991;52.140;5.428;2023-02-26T02:57:10;102133.34;;;-0.36;73.88
72116;BME280;59991;52.140;5.428;2023-02-26T02:57:56;102140.84;;;-0.33;73.86
72116;BME280;59991;52.140;5.428;2023-02-26T02:58:39;102135.47;;;-0.33;73.97
72116;BME280;59991;52.140;5.428;2023-02-26T02:59:23;102139.75;;;-0.32;73.88
72116;BME280;59991;52.140;5.428;2023-02-26T03:00:02;102140.56;;;-0.31;73.79
72116;BME280;59991;52.140;5.428;2023-02-26T03:00:40;102146.47;;;-0.29;73.78
72116;BME280;59991;52.140;5.428;2023-02-26T03:01:17;102153.97;;;-0.31;73.91
72116;BME280;59991;52.140;5.428;2023-02-26T03:02:06;102143.78;;;-0.35;73.97
72116;BME280;59991;52.140;5.428;2023-02-26T03:02:55;102150.47;;;-0.32;74.15
72116;BME280;59991;52.140;5.428;2023-02-26T03:04:00;102152.63;;;-0.34;73.77
72116;BME280;59991;52.140;5.428;2023-02-26T03:04:39;102140.34;;;-0.40;73.84
72116;BME280;59991;52.140;5.428;2023-02-26T03:05:14;102152.63;;;-0.34;73.48
72116;BME280;59991;52.140;5.428;2023-02-26T03:05:51;102154.78;;;-0.36;73.63
72116;BME280;59991;52.140;5.428;2023-02-26T03:06:24;102147.81;;;-0.37;73.59
72116;BME280;59991;52.140;5.428;2023-02-26T03:06:59;102153.16;;;-0.37;73.96
72116;BME280;59991;52.140;5.428;2023-02-26T03:07:43;102147.31;;;-0.39;74.17
72116;BME280;59991;52.140;5.428;2023-02-26T03:08:21;102152.66;;;-0.39;74.10
72116;BME280;59991;52.140;5.428;2023-02-26T03:08:59;102155.56;;;-0.36;73.67
72116;BME280;59991;52.140;5.428;2023-02-26T03:09:35;102154.25;;;-0.38;73.67
72116;BME280;59991;52.140;5.428;2023-02-26T03:10:07;102154.25;;;-0.38;73.49
72116;BME280;59991;52.140;5.428;2023-02-26T03:10:49;102152.66;;;-0.39;73.58
72116;BME280;59991;52.140;5.428;2023-02-26T03:11:34;102155.84;;;-0.37;73.21
72116;BME280;59991;52.140;5.428;2023-02-26T03:12:14;102154.25;;;-0.38;73.28
72116;BME280;59991;52.140;5.428;2023-02-26T03:12:57;102151.31;;;-0.42;73.49
72116;BME280;59991;52.140;5.428;2023-02-26T03:13:30;102153.16;;;-0.37;73.75
72116;BME280;59991;52.140;5.428;2023-02-26T03:14:04;102156.41;;;-0.40;73.57
72116;BME280;59991;52.140;5.428;2023-02-26T03:14:37;102151.84;;;-0.40;73.50
72116;BME280;59991;52.140;5.428;2023-02-26T03:15:36;102159.59;;;-0.38;73.26
72116;BME280;59991;52.140;5.428;2023-02-26T03:17:08;102155.34;;;-0.44;73.56
72116;BME280;59991;52.140;5.428;2023-02-26T03:22:16;102170.09;;;-0.47;73.83
72116;BME280;59991;52.140;5.428;2023-02-26T03:23:03;102175.16;;;-0.45;73.66
72116;BME280;59991;52.140;5.428;2023-02-26T03:23:48;102170.88;;;-0.51;73.80
72116;BME280;59991;52.140;5.428;2023-02-26T03:24:54;102173.56;;;-0.46;73.95
72116;BME280;59991;52.140;5.428;2023-02-26T03:25:49;102171.97;;;-0.47;73.80
72116;BME280;59991;52.140;5.428;2023-02-26T03:29:46;102160.72;;;-0.59;73.81
72116;BME280;59991;52.140;5.428;2023-02-26T03:30:53;102173.56;;;-0.56;73.61
72116;BME280;59991;52.140;5.428;2023-02-26T03:32:15;102165.53;;;-0.66;73.74
72116;BME280;59991;52.140;5.428;2023-02-26T03:34:06;102175.72;;;-0.58;73.78
72116;BME280;59991;52.140;5.428;2023-02-26T03:34:46;102171.44;;;-0.64;73.33
72116;BME280;59991;52.140;5.428;2023-02-26T03:35:50;102177.59;;;-0.59;73.47
72116;BME280;59991;52.140;5.428;2023-02-26T03:36:36;102176.78;;;-0.64;73.51
72116;BME280;59991;52.140;5.428;2023-02-26T03:37:19;102186.44;;;-0.58;73.45
72116;BME280;59991;52.140;5.428;2023-02-26T03:37:58;102174.38;;;-0.66;73.35
72116;BME280;59991;52.140;5.428;2023-02-26T03:39:00;102184.84;;;-0.59;73.11
72116;BME280;59991;52.140;5.428;2023-02-26T03:39:41;102176.78;;;-0.64;73.34
72116;BME280;59991;52.140;5.428;2023-02-26T03:40:33;102180.00;;;-0.62;73.71
72116;BME280;59991;52.140;5.428;2023-02-26T03:41:32;102183.22;;;-0.65;73.75
72116;BME280;59991;52.140;5.428;2023-02-26T03:42:10;102188.59;;;-0.65;73.34
72116;BME280;59991;52.140;5.428;2023-02-26T03:42:59;102185.91;;;-0.65;73.31
72116;BME280;59991;52.140;5.428;2023-02-26T03:43:49;102186.44;;;-0.68;73.45
72116;BME280;59991;52.140;5.428;2023-02-26T03:46:02;102178.66;;;-0.70;73.10
72116;BME280;59991;52.140;5.428;2023-02-26T03:46:42;102182.69;;;-0.67;73.12
72116;BME280;59991;52.140;5.428;2023-02-26T03:47:18;102180.53;;;-0.65;72.93
72116;BME280;59991;52.140;5.428;2023-02-26T03:48:00;102192.59;;;-0.63;73.34
72116;BME280;59991;52.140;5.428;2023-02-26T03:48:42;102191.25;;;-0.65;73.37
72116;BME280;59991;52.140;5.428;2023-02-26T03:49:23;102190.19;;;-0.70;73.18
72116;BME280;59991;52.140;5.428;2023-02-26T03:50:08;102183.22;;;-0.71;73.33
72116;BME280;59991;52.140;5.428;2023-02-26T03:50:55;102187.50;;;-0.70;73.08
72116;BME280;59991;52.140;5.428;2023-02-26T03:51:29;102184.03;;;-0.70;73.30
72116;BME280;59991;52.140;5.428;2023-02-26T03:52:06;102189.66;;;-0.72;73.40
72116;BME280;59991;52.140;5.428;2023-02-26T03:52:42;102196.88;;;-0.67;73.26
72116;BME280;59991;52.140;5.428;2023-02-26T03:53:41;102197.97;;;-0.68;73.21
72116;BME280;59991;52.140;5.428;2023-02-26T03:54:31;102193.13;;;-0.71;72.92
72116;BME280;59991;52.140;5.428;2023-02-26T03:56:27;102207.59;;;-0.67;73.25
72116;BME280;59991;52.140;5.428;2023-02-26T03:57:07;102199.81;;;-0.74;73.20
72116;BME280;59991;52.140;5.428;2023-02-26T03:57:44;102200.38;;;-0.72;73.15
72116;BME280;59991;52.140;5.428;2023-02-26T03:58:22;102198.22;;;-0.75;73.21
72116;BME280;59991;52.140;5.428;2023-02-26T03:58:59;102192.06;;;-0.75;73.03
72116;BME280;59991;52.140;5.428;2023-02-26T03:59:39;102200.91;;;-0.75;73.64
72116;BME280;59991;52.140;5.428;2023-02-26T04:00:17;102202.50;;;-0.74;73.14
72116;BME280;59991;52.140;5.428;2023-02-26T04:00:56;102196.59;;;-0.76;73.21
72116;BME280;59991;52.140;5.428;2023-02-26T04:01:39;102207.59;;;-0.72;73.65
72116;BME280;59991;52.140;5.428;2023-02-26T04:02:18;102210.00;;;-0.71;73.24
72116;BME280;59991;52.140;5.428;2023-02-26T04:03:11;102213.22;;;-0.68;73.39
72116;BME280;59991;52.140;5.428;2023-02-26T04:03:49;102200.91;;;-0.75;72.92
72116;BME280;59991;52.140;5.428;2023-02-26T04:04:52;102220.72;;;-0.71;73.15
72116;BME280;59991;52.140;5.428;2023-02-26T04:05:29;102209.19;;;-0.71;72.91
72116;BME280;59991;52.140;5.428;2023-02-26T04:06:05;102200.34;;;-0.77;72.98
72116;BME280;59991;52.140;5.428;2023-02-26T04:06:42;102207.63;;;-0.77;72.96
72116;BME280;59991;52.140;5.428;2023-02-26T04:07:16;102209.47;;;-0.73;72.87
72116;BME280;59991;52.140;5.428;2023-02-26T04:08:00;102211.06;;;-0.77;73.18
72116;BME280;59991;52.140;5.428;2023-02-26T04:08:34;102208.13;;;-0.75;73.35
72116;BME280;59991;52.140;5.428;2023-02-26T04:09:11;102205.72;;;-0.77;72.93
72116;BME280;59991;52.140;5.428;2023-02-26T04:09:53;102216.97;;;-0.75;72.98
72116;BME280;59991;52.140;5.428;2023-02-26T04:10:32;102208.69;;;-0.78;72.97
72116;BME280;59991;52.140;5.428;2023-02-26T04:11:18;102200.91;;;-0.80;73.30
72116;BME280;59991;52.140;5.428;2023-02-26T04:11:59;102211.88;;;-0.76;72.92
72116;BME280;59991;52.140;5.428;2023-02-26T04:12:33;102208.94;;;-0.80;73.01
72116;BME280;59991;52.140;5.428;2023-02-26T04:13:07;102202.25;;;-0.82;73.58
72116;BME280;59991;52.140;5.428;2023-02-26T04:13:55;102221.50;;;-0.75;73.29
72116;BME280;59991;52.140;5.428;2023-02-26T04:14:29;102199.84;;;-0.84;73.37
72116;BME280;59991;52.140;5.428;2023-02-26T04:15:10;102213.22;;;-0.79;73.66
72116;BME280;59991;52.140;5.428;2023-02-26T04:15:42;102212.69;;;-0.81;73.27
72116;BME280;59991;52.140;5.428;2023-02-26T04:16:14;102216.97;;;-0.85;73.44
72116;BME280;59991;52.140;5.428;2023-02-26T04:16:49;102216.16;;;-0.85;73.25
72116;BME280;59991;52.140;5.428;2023-02-26T04:17:25;102224.75;;;-0.78;73.44
72116;BME280;59991;52.140;5.428;2023-02-26T04:17:59;102213.50;;;-0.85;73.78
72116;BME280;59991;52.140;5.428;2023-02-26T04:18:39;102225.53;;;-0.83;73.26
72116;BME280;59991;52.140;5.428;2023-02-26T04:19:14;102227.41;;;-0.83;73.43